createdAt,value
2022-08-22T06:12:38.028Z,93845.47
2022-08-22T06:15:16.981Z,93850.00
2022-08-22T06:17:54.044Z,93842.13
2022-08-22T06:20:28.759Z,93847.59
2022-08-22T06:23:03.293Z,93843.59
2022-08-22T06:25:35.675Z,93843.84
2022-08-22T06:28:12.993Z,93854.66
2022-08-22T06:30:45.693Z,93850.34
2022-08-22T06:33:23.576Z,93847.66
2022-08-22T06:36:20.513Z,93854.94
2022-08-22T06:39:07.395Z,93847.28
2022-08-22T06:41:43.449Z,93851.28
2022-08-22T06:44:20.039Z,93849.50
2022-08-22T06:46:55.027Z,93850.81
2022-08-22T06:49:27.164Z,93852.50
2022-08-22T06:52:03.399Z,93858.19
2022-08-22T06:54:38.584Z,93855.06
2022-08-22T06:57:25.429Z,93851.19
2022-08-22T06:59:58.265Z,93851.13
2022-08-22T07:02:36.440Z,93848.00
2022-08-22T07:05:07.046Z,93851.19
2022-08-22T07:07:38.803Z,93849.22
2022-08-22T07:10:08.945Z,93855.00
2022-08-22T07:12:39.568Z,93852.00
2022-08-22T07:15:24.234Z,93846.06
2022-08-22T07:18:01.021Z,93854.09
2022-08-22T07:20:36.410Z,93857.91
2022-08-22T07:23:11.001Z,93853.66
2022-08-22T07:25:54.249Z,93861.50
2022-08-22T07:28:51.589Z,93857.59
2022-08-22T07:31:38.844Z,93857.47
2022-08-22T07:34:31.377Z,93861.63
2022-08-22T07:37:06.982Z,93865.00
2022-08-22T07:39:46.451Z,93852.13
2022-08-22T07:42:19.890Z,93849.38
2022-08-22T07:45:08.549Z,93848.72
2022-08-22T07:48:03.183Z,93854.53
2022-08-22T07:50:39.149Z,93859.97
2022-08-22T07:53:20.468Z,93855.75
2022-08-22T07:55:51.034Z,93857.63
2022-08-22T07:58:23.290Z,93851.84
2022-08-22T08:00:54.628Z,93853.66
2022-08-22T08:03:29.331Z,93859.03
2022-08-22T08:05:58.634Z,93850.72
2022-08-22T08:08:34.333Z,93848.59
2022-08-22T08:11:05.213Z,93853.56
2022-08-22T08:13:39.650Z,93841.09
2022-08-22T08:16:18.025Z,93842.47
2022-08-22T08:18:52.073Z,93843.88
2022-08-22T08:21:31.468Z,93835.78
2022-08-22T08:24:03.028Z,93832.31
2022-08-22T08:26:37.226Z,93844.88
2022-08-22T08:29:08.417Z,93840.63
2022-08-22T08:31:43.053Z,93833.19
2022-08-22T08:34:23.551Z,93841.75
2022-08-22T08:36:56.516Z,93840.41
2022-08-22T08:39:35.255Z,93834.09
2022-08-22T08:43:11.679Z,93843.09
2022-08-22T08:46:33.748Z,93843.72
2022-08-22T08:49:43.236Z,93842.44
2022-08-22T08:52:52.863Z,93840.63
2022-08-22T08:55:41.441Z,93839.81
2022-08-22T08:58:35.065Z,93847.31
2022-08-22T09:01:42.808Z,93843.34
2022-08-22T09:04:57.044Z,93838.25
2022-08-22T09:10:48.121Z,93830.84
2022-08-22T09:14:04.153Z,93827.84
2022-08-22T09:17:06.899Z,93822.75
2022-08-22T09:20:17.974Z,93816.72
2022-08-22T09:23:47.559Z,93825.47
2022-08-22T09:26:37.184Z,93823.56
2022-08-22T09:29:54.734Z,93812.13
2022-08-22T09:32:45.763Z,93818.97
2022-08-22T09:35:39.860Z,93822.63
2022-08-22T09:38:36.753Z,93824.75
2022-08-22T09:41:45.769Z,93832.38
2022-08-22T09:44:39.579Z,93826.66
2022-08-22T09:47:25.005Z,93825.53
2022-08-22T09:50:09.851Z,93818.25
2022-08-22T09:53:11.341Z,93812.09
2022-08-22T09:55:50.165Z,93810.97
2022-08-22T09:58:41.807Z,93806.94
2022-08-22T10:01:32.875Z,93810.31
2022-08-22T10:04:48.538Z,93801.28
2022-08-22T10:07:54.275Z,93799.91
2022-08-22T10:10:51.877Z,93793.91
2022-08-22T10:13:46.472Z,93785.31
2022-08-22T10:16:49.559Z,93792.53
2022-08-22T10:19:28.942Z,93782.47
2022-08-22T10:22:47.260Z,93780.06
2022-08-22T10:25:36.253Z,93779.28
2022-08-22T10:32:37.413Z,93768.97
2022-08-22T10:35:21.501Z,93767.28
2022-08-22T10:42:27.997Z,93754.81
2022-08-22T10:45:32.107Z,93753.09
2022-08-22T10:48:46.680Z,93757.97
2022-08-22T10:51:42.395Z,93753.03
2022-08-22T10:54:29.333Z,93748.53
2022-08-22T10:57:52.851Z,93753.72
2022-08-22T11:05:38.566Z,93735.56
2022-08-22T11:08:59.624Z,93726.44
2022-08-22T11:12:28.256Z,93725.03
2022-08-22T11:15:34.420Z,93725.94
2022-08-22T11:22:48.685Z,93725.13
2022-08-22T11:26:08.911Z,93719.75
2022-08-22T11:29:07.868Z,93715.81
2022-08-22T11:32:05.874Z,93717.97
2022-08-22T11:34:59.002Z,93717.53
2022-08-22T11:42:05.890Z,93711.56
2022-08-22T11:44:50.469Z,93714.00
2022-08-22T11:52:32.398Z,93702.59
2022-08-22T11:59:56.320Z,93703.59
2022-08-22T12:02:48.856Z,93684.00
2022-08-22T12:09:50.849Z,93680.13
2022-08-22T12:17:55.027Z,93677.56
2022-08-22T12:20:45.532Z,93667.69
2022-08-22T12:23:49.540Z,93681.53
2022-08-22T12:26:34.328Z,93674.69
2022-08-22T12:33:57.451Z,93653.59
2022-08-22T12:41:40.175Z,93638.50
2022-08-22T12:49:25.563Z,93647.03
2022-08-22T13:00:48.905Z,93628.16
2022-08-22T13:03:29.686Z,93630.31
2022-08-22T13:06:05.383Z,93629.69
2022-08-22T13:08:44.147Z,93626.41
2022-08-22T13:11:23.055Z,93631.97
2022-08-22T13:13:58.466Z,93643.56
2022-08-22T13:16:48.997Z,93657.00
2022-08-22T13:19:24.156Z,93667.69
2022-08-22T13:22:00.879Z,93661.72
2022-08-22T13:24:51.758Z,93663.59
2022-08-22T13:32:01.856Z,93646.16
2022-08-22T13:34:43.466Z,93656.81
2022-08-22T13:37:20.114Z,93658.69
2022-08-22T13:39:54.118Z,93676.19
2022-08-22T13:42:30.827Z,93689.19
2022-08-22T13:49:36.079Z,93685.72
2022-08-22T13:52:29.091Z,93680.03
2022-08-22T13:59:47.053Z,93694.16
2022-08-22T14:02:20.163Z,93725.09
2022-08-22T14:04:56.251Z,93720.09
2022-08-22T14:07:36.960Z,93722.59
2022-08-22T14:10:15.309Z,93740.06
2022-08-22T14:13:20.777Z,93763.50
2022-08-22T14:15:49.857Z,93757.94
2022-08-22T14:18:30.319Z,93747.56
2022-08-22T14:21:49.095Z,93758.75
2022-08-22T14:24:25.862Z,93771.97
2022-08-22T14:27:05.480Z,93761.22
2022-08-22T14:29:50.167Z,93766.81
2022-08-22T14:32:43.739Z,93777.94
2022-08-22T14:35:29.296Z,93780.94
2022-08-22T14:42:48.339Z,93786.53
2022-08-22T14:45:23.874Z,93779.75
2022-08-22T14:48:29.441Z,93772.94
2022-08-22T14:51:20.064Z,93769.19
2022-08-22T14:53:51.754Z,93752.59
2022-08-22T15:05:54.193Z,93746.53
2022-08-22T15:08:30.377Z,93738.47
2022-08-22T15:11:15.253Z,93746.94
2022-08-22T15:13:54.759Z,93747.22
2022-08-22T15:16:33.940Z,93748.28
2022-08-22T15:23:32.198Z,93757.06
2022-08-22T15:26:26.894Z,93752.78
2022-08-22T15:29:20.853Z,93758.81
2022-08-22T15:41:46.329Z,93777.41
2022-08-22T15:44:32.907Z,93782.56
2022-08-22T15:47:12.097Z,93792.91
2022-08-22T15:49:59.019Z,93799.81
2022-08-22T15:52:32.384Z,93793.97
2022-08-22T15:55:25.624Z,93800.66
2022-08-22T15:58:07.818Z,93802.91
2022-08-22T16:00:45.040Z,93797.91
2022-08-22T16:03:27.111Z,93797.38
2022-08-22T16:06:01.316Z,93797.72
2022-08-22T16:08:45.626Z,93812.78
2022-08-22T16:11:33.010Z,93799.19
2022-08-22T16:19:25.446Z,93799.03
2022-08-22T16:22:15.143Z,93791.16
2022-08-22T16:25:10.624Z,93789.34
2022-08-22T16:27:58.739Z,93799.81
2022-08-22T16:30:40.234Z,93794.91
2022-08-22T16:33:18.005Z,93790.88
2022-08-22T16:37:02.227Z,93788.19
2022-08-22T16:39:42.649Z,93789.13
2022-08-22T16:42:29.232Z,93795.56
2022-08-22T16:45:16.544Z,93784.00
2022-08-22T16:47:52.778Z,93784.69
2022-08-22T16:50:41.016Z,93787.78
2022-08-22T16:53:33.776Z,93782.78
2022-08-22T17:00:51.241Z,93786.94
2022-08-22T17:03:35.346Z,93773.44
2022-08-22T17:06:26.770Z,93772.22
2022-08-22T17:09:13.432Z,93777.16
2022-08-22T17:11:56.457Z,93778.28
2022-08-22T17:14:49.576Z,93784.81
2022-08-22T17:17:35.391Z,93790.75
2022-08-22T17:20:23.771Z,93790.75
2022-08-22T17:23:26.641Z,93792.75
2022-08-22T17:40:09.732Z,93803.03
2022-08-22T17:47:15.425Z,65556.66
2022-08-22T17:54:44.577Z,65556.66
2022-08-22T18:06:24.230Z,65556.66
2022-08-22T18:09:15.423Z,65556.66
2022-08-22T18:11:53.538Z,65556.66
2022-08-22T18:14:32.868Z,65556.66
2022-08-22T18:17:21.795Z,65556.66
2022-08-22T18:29:16.840Z,65556.66
2022-08-22T18:31:52.809Z,65556.66
2022-08-22T18:39:23.693Z,65556.66
2022-08-22T18:46:43.102Z,65556.66
2022-08-22T18:53:50.809Z,65556.66
2022-08-22T18:56:51.985Z,65556.66
2022-08-22T18:59:55.653Z,65556.66
2022-08-22T19:07:26.880Z,65556.66
2022-08-22T19:10:34.782Z,65556.66
2022-08-22T19:14:43.586Z,65556.66
2022-08-22T19:22:55.424Z,65556.66
2022-08-22T19:31:16.425Z,65556.66
2022-08-22T19:43:37.115Z,65556.66
2022-08-22T20:05:47.356Z,65556.66
2022-08-22T20:08:48.398Z,65556.66
2022-08-22T20:34:28.594Z,65556.66
2022-08-22T20:46:43.685Z,65556.66
2022-08-22T20:53:38.998Z,65556.66
2022-08-22T21:01:03.565Z,65556.66
2022-08-22T21:13:20.948Z,65556.66
2022-08-22T21:20:41.971Z,65556.66
2022-08-22T21:28:35.040Z,65556.66
2022-08-22T21:35:43.648Z,65556.66
2022-08-22T21:38:19.331Z,65556.66
2022-08-22T21:40:48.159Z,65556.66
2022-08-22T21:43:34.593Z,65556.66
2022-08-22T21:50:38.084Z,65556.66
2022-08-22T21:53:14.101Z,65556.66
2022-08-22T21:56:30.703Z,65556.66
2022-08-22T21:59:50.516Z,65556.66
2022-08-22T22:11:18.930Z,65556.66
2022-08-22T22:13:47.625Z,65556.66
2022-08-22T22:16:28.919Z,65556.66
2022-08-22T22:28:11.991Z,65556.66
2022-08-22T22:35:26.026Z,65556.66
2022-08-22T22:37:56.051Z,65556.66
2022-08-22T22:40:25.526Z,65556.66
2022-08-22T22:47:34.204Z,65556.66
2022-08-22T23:08:36.913Z,65556.66
2022-08-22T23:20:31.408Z,65556.66
2022-08-22T23:32:29.935Z,65556.66
2022-08-22T23:44:23.639Z,65556.66
2022-08-22T23:51:23.901Z,65556.66
2022-08-22T23:58:36.384Z,65556.66
